Time;durP1;ratioP1;P1;durP2;ratioP2;P2;SDS_P1;SDS_P2;PMS_P1;PMS_P2;Temp;Humidity;BMP_temperature;BMP_pressure;BME280_temperature;BME280_humidity;BME280_pressure;Samples;Min_cycle;Max_cycle;Signal;HPM_P1;HPM_P2
2021/12/24 00:01:18;;;;;;;7.93;5.53;;;;;;;20.84;26.08;99238.22;5007897;28;20534;-66
2021/12/24 00:03:43;;;;;;;7.20;5.22;;;;;;;20.85;26.25;99227.91;5007876;28;20073;-66
2021/12/24 00:06:10;;;;;;;7.25;4.80;;;;;;;20.85;26.24;99233.47;5007749;28;20081;-66
2021/12/24 00:08:36;;;;;;;6.97;4.97;;;;;;;20.85;26.19;99237.03;5007726;28;20596;-66
2021/12/24 00:11:04;;;;;;;7.18;5.00;;;;;;;20.84;26.25;99238.22;5007538;28;20081;-66
2021/12/24 00:13:35;;;;;;;7.35;5.13;;;;;;;20.84;26.17;99226.31;5102965;28;20035;-57
2021/12/24 00:22:09;;;;;;;8.25;5.97;;;;;;;20.82;26.26;99242.56;5110001;28;20457;-58
2021/12/24 00:37:24;;;;;;;7.63;5.38;;;;;;;20.78;26.28;99216.69;5109787;28;20054;-57
2021/12/24 00:40:01;;;;;;;7.75;5.55;;;;;;;20.78;26.06;99206.38;5109612;28;20039;-66
2021/12/24 00:42:26;;;;;;;8.95;5.95;;;;;;;20.78;26.29;99195.25;5109928;28;20538;-66
2021/12/24 00:44:52;;;;;;;7.72;5.38;;;;;;;20.80;26.15;99190.16;5109598;28;20067;-66
2021/12/24 00:47:17;;;;;;;7.75;5.32;;;;;;;20.81;26.24;99188.16;5109476;28;20040;-66
2021/12/24 00:49:43;;;;;;;7.88;5.45;;;;;;;20.81;26.21;99191.75;5109727;28;20036;-66
2021/12/24 00:52:46;;;;;;;8.35;5.47;;;;;;;20.82;26.26;99196.13;5109663;28;20436;-66
2021/12/24 00:55:09;;;;;;;7.13;4.95;;;;;;;20.81;26.11;99188.97;5109366;28;20511;-66
2021/12/24 00:57:39;;;;;;;7.47;5.10;;;;;;;20.81;26.03;99183.41;5109562;28;20035;-65
2021/12/24 01:00:10;;;;;;;7.30;5.28;;;;;;;20.81;26.17;99172.28;5109567;28;20512;-65
2021/12/24 01:02:36;;;;;;;9.05;5.00;;;;;;;20.80;26.03;99158.78;5074289;28;20047;-66
2021/12/24 01:05:02;;;;;;;6.82;5.00;;;;;;;20.80;25.88;99156.00;5109625;28;20036;-66
2021/12/24 01:07:27;;;;;;;6.80;4.70;;;;;;;20.80;26.01;99148.44;5109518;28;20096;-66
2021/12/24 01:09:53;;;;;;;7.68;5.03;;;;;;;20.80;26.03;99148.44;5109462;28;20035;-66
2021/12/24 01:12:18;;;;;;;7.13;4.53;;;;;;;20.78;26.08;99142.44;5105280;28;20411;-66
2021/12/24 01:14:47;;;;;;;7.80;5.20;;;;;;;20.79;26.20;99141.28;5109485;28;20093;-66
2021/12/24 01:19:41;;;;;;;7.70;5.18;;;;;;;20.78;26.06;99125.78;5109193;28;20094;-66
2021/12/24 01:39:14;;;;;;;8.05;5.38;;;;;;;21.29;25.53;99125.09;5046343;28;20091;-65
2021/12/24 01:41:19;;;;;;;8.18;4.80;;;;;;;21.17;25.58;99119.81;5042421;28;20052;-66
2021/12/24 01:43:45;;;;;;;6.90;5.13;;;;;;;21.11;25.60;99124.13;5049593;28;20057;-66
2021/12/24 01:46:12;;;;;;;8.85;5.75;;;;;;;21.06;25.59;99105.00;5049783;28;20041;-66
2021/12/24 01:48:38;;;;;;;8.27;5.13;;;;;;;21.02;25.80;99116.09;5049580;28;20603;-65
2021/12/24 01:51:04;;;;;;;7.18;5.20;;;;;;;20.97;25.78;99110.06;5049366;28;20471;-66
2021/12/24 01:53:33;;;;;;;7.40;4.82;;;;;;;20.95;25.98;99106.88;5049485;28;20517;-66
2021/12/24 01:55:59;;;;;;;8.48;5.32;;;;;;;20.94;25.82;99108.06;5049513;28;20048;-66
2021/12/24 01:58:26;;;;;;;7.03;5.30;;;;;;;20.92;25.87;99104.84;5037610;28;20041;-66
2021/12/24 02:00:55;;;;;;;6.22;4.93;;;;;;;20.91;25.78;99103.25;5043334;28;20122;-65
2021/12/24 02:03:21;;;;;;;6.90;4.57;;;;;;;20.88;25.96;99107.63;5112047;28;20384;-65
2021/12/24 02:05:49;;;;;;;7.63;5.03;;;;;;;20.88;26.09;99104.84;5112252;28;20051;-65
2021/12/24 02:08:16;;;;;;;7.45;4.93;;;;;;;20.87;26.00;99101.25;5112194;28;20070;-66
2021/12/24 02:10:43;;;;;;;7.35;5.20;;;;;;;20.84;26.08;99104.78;5111853;28;20130;-66
2021/12/24 02:13:08;;;;;;;7.68;5.20;;;;;;;20.85;26.16;99103.59;5111783;28;20047;-66
2021/12/24 02:28:13;;;;;;;6.97;4.95;;;;;;;20.84;26.23;99110.34;5111966;28;20530;-66
2021/12/24 02:28:54;;;;;;;7.22;4.80;;;;;;;20.82;26.01;99089.69;5111771;28;20054;-66
2021/12/24 02:31:22;;;;;;;7.25;5.15;;;;;;;20.81;26.19;99091.66;5111706;28;20047;-65
2021/12/24 02:33:48;;;;;;;8.43;5.38;;;;;;;20.81;26.12;99086.13;5111714;28;20043;-66
2021/12/24 02:36:14;;;;;;;7.35;5.05;;;;;;;20.80;26.09;99084.53;5111730;28;20044;-66
2021/12/24 02:38:41;;;;;;;7.30;4.75;;;;;;;20.82;26.13;99087.69;5093465;28;20040;-66
2021/12/24 02:41:09;;;;;;;6.35;4.60;;;;;;;20.81;26.00;99083.34;5111729;28;20075;-66
2021/12/24 02:43:35;;;;;;;5.82;4.15;;;;;;;20.82;25.87;99082.16;5111386;28;20071;-66
2021/12/24 02:46:11;;;;;;;6.57;4.53;;;;;;;20.83;26.23;99085.72;5111542;28;20082;-66
2021/12/24 02:54:01;;;;;;;6.65;4.68;;;;;;;20.80;26.05;99080.94;5111463;28;20070;-66
2021/12/24 02:56:33;;;;;;;7.25;5.40;;;;;;;20.80;26.01;99081.75;5111051;28;20491;-57
2021/12/24 02:59:03;;;;;;;6.55;4.47;;;;;;;20.81;26.09;99083.34;5111156;28;20044;-57
2021/12/24 03:01:35;;;;;;;6.65;4.70;;;;;;;20.80;25.85;99070.63;5111113;28;20043;-58
2021/12/24 03:04:02;;;;;;;7.00;4.78;;;;;;;20.79;26.01;99069.03;5111145;28;20044;-57
2021/12/24 03:06:31;;;;;;;7.32;5.13;;;;;;;20.80;25.96;99069.81;5110729;28;20073;-58
2021/12/24 03:08:57;;;;;;;6.55;4.65;;;;;;;20.80;26.09;99065.06;5111022;28;20035;-57
2021/12/24 03:11:24;;;;;;;7.13;4.82;;;;;;;20.80;26.11;99058.69;5110923;28;20043;-57
2021/12/24 03:13:50;;;;;;;6.60;4.70;;;;;;;20.79;26.21;99065.44;5111153;28;20049;-58
2021/12/24 03:16:16;;;;;;;6.45;4.75;;;;;;;20.80;26.05;99058.69;5110942;28;20036;-58
2021/12/24 03:18:43;;;;;;;6.90;4.82;;;;;;;20.79;26.21;99068.22;5111103;28;20043;-57
2021/12/24 03:21:17;;;;;;;7.53;4.82;;;;;;;20.80;26.13;99062.28;5092711;28;20130;-57
2021/12/24 03:24:33;;;;;;;7.35;4.90;;;;;;;20.80;26.03;99053.16;5108918;28;20093;-58
2021/12/24 03:26:32;;;;;;;8.05;5.15;;;;;;;20.79;26.08;99046.78;5110654;28;20044;-58
2021/12/24 03:28:58;;;;;;;6.75;4.80;;;;;;;20.79;26.24;99055.13;5111129;28;20048;-57
2021/12/24 03:31:23;;;;;;;6.68;4.72;;;;;;;20.78;25.91;99045.16;5110937;28;20088;-57
2021/12/24 03:33:53;;;;;;;7.20;5.28;;;;;;;20.78;26.10;99047.94;5110865;28;20067;-57
2021/12/24 03:36:22;;;;;;;8.60;5.18;;;;;;;20.76;25.96;99041.97;5110754;28;20047;-57
2021/12/24 03:38:48;;;;;;;9.80;5.00;;;;;;;20.77;25.88;99042.78;5110583;28;20078;-57
2021/12/24 03:41:14;;;;;;;6.25;4.93;;;;;;;20.76;25.96;99035.63;5110629;28;20463;-57
2021/12/24 03:43:39;;;;;;;6.97;5.10;;;;;;;20.72;26.06;99024.50;5110600;28;20047;-57
2021/12/24 03:46:09;;;;;;;6.93;5.00;;;;;;;20.76;26.02;99018.94;5110583;28;20043;-57
2021/12/24 03:48:48;;;;;;;8.32;5.53;;;;;;;20.74;26.13;99011.00;5110671;28;20043;-58
2021/12/24 03:56:27;;;;;;;7.10;4.90;;;;;;;20.72;25.92;98984.78;5111012;28;20576;-57
2021/12/24 03:58:53;;;;;;;6.82;5.10;;;;;;;20.72;26.16;98993.13;5110504;28;20044;-57
2021/12/24 04:01:18;;;;;;;6.07;4.40;;;;;;;20.70;26.18;98968.47;5110013;28;20047;-57
2021/12/24 04:03:44;;;;;;;7.65;5.10;;;;;;;20.72;25.95;98949.44;5110226;28;20098;-58
2021/12/24 04:06:09;;;;;;;6.90;5.13;;;;;;;20.72;26.03;98945.88;5110524;28;20040;-57
2021/12/24 04:08:35;;;;;;;7.05;4.97;;;;;;;20.70;25.97;98946.25;5110364;28;20039;-58
2021/12/24 04:11:01;;;;;;;7.43;5.18;;;;;;;20.71;26.17;98947.03;5110146;28;20081;-57
2021/12/24 04:13:26;;;;;;;7.90;5.38;;;;;;;20.73;26.10;98936.34;5110325;28;20046;-57
2021/12/24 04:15:52;;;;;;;8.00;5.22;;;;;;;20.70;25.94;98926.78;5110014;28;20043;-57
2021/12/24 04:18:37;;;;;;;7.70;5.30;;;;;;;20.70;25.96;98932.34;5110070;28;20074;-57
2021/12/24 04:26:34;;;;;;;6.72;4.70;;;;;;;20.70;26.00;98910.13;5110059;28;20070;-57
2021/12/24 04:28:59;;;;;;;6.50;4.88;;;;;;;20.70;26.14;98898.19;5110369;28;20047;-57
2021/12/24 04:31:31;;;;;;;6.95;4.85;;;;;;;20.68;26.04;98895.81;5110001;28;20047;-58
2021/12/24 04:34:00;;;;;;;6.43;4.73;;;;;;;20.71;25.98;98897.00;5105837;28;20480;-57
2021/12/24 04:50:59;;;;;;;6.80;4.70;;;;;;;20.73;26.03;98911.34;5109899;28;20051;-57
2021/12/24 05:01:13;;;;;;;6.50;4.28;;;;;;;20.72;26.14;98904.19;5109962;28;20553;-57
2021/12/24 05:01:22;;;;;;;6.50;4.30;;;;;;;20.72;26.09;98901.41;5109556;28;20093;-57
2021/12/24 05:03:48;;;;;;;6.15;4.32;;;;;;;20.72;26.08;98907.75;5106429;28;20596;-57
2021/12/24 05:08:57;;;;;;;6.40;4.40;;;;;;;20.73;26.14;98900.22;5109466;28;20507;-57
2021/12/24 05:11:23;;;;;;;6.05;4.13;;;;;;;20.74;26.28;98904.59;5109482;28;20044;-57
2021/12/24 05:13:51;;;;;;;7.22;4.13;;;;;;;20.73;26.32;98901.03;5109947;28;20048;-57
2021/12/24 05:21:33;;;;;;;6.55;4.20;;;;;;;20.75;26.42;98901.41;5112921;28;20044;-58
2021/12/24 05:24:03;;;;;;;6.65;4.50;;;;;;;20.75;26.13;98903.41;5112789;28;20044;-57
2021/12/24 05:26:29;;;;;;;5.20;3.80;;;;;;;20.75;26.33;98895.84;5112766;28;20153;-57
2021/12/24 05:28:56;;;;;;;6.15;3.95;;;;;;;20.75;26.28;98895.06;5112897;28;20050;-57
2021/12/24 05:31:22;;;;;;;5.50;3.80;;;;;;;20.75;26.35;98887.53;5112753;28;20130;-57
2021/12/24 05:33:48;;;;;;;5.10;3.97;;;;;;;20.75;26.53;98873.63;5121953;28;20048;-57
2021/12/24 05:36:13;;;;;;;5.60;3.72;;;;;;;20.76;26.20;98888.31;5133291;27;20084;-58
2021/12/24 05:38:39;;;;;;;5.95;4.10;;;;;;;20.75;26.35;98904.19;5133461;27;20027;-57
2021/12/24 05:41:04;;;;;;;5.22;3.60;;;;;;;20.75;26.39;98864.50;5132925;27;20084;-57
2021/12/24 05:43:30;;;;;;;7.40;4.53;;;;;;;20.75;26.31;98879.19;5133208;27;20043;-58
2021/12/24 05:45:55;;;;;;;4.90;3.67;;;;;;;20.74;26.42;98876.81;5133228;27;20467;-57
2021/12/24 05:48:21;;;;;;;6.35;4.28;;;;;;;20.73;26.45;98867.66;5133205;28;20432;-66
2021/12/24 05:50:47;;;;;;;5.40;3.70;;;;;;;20.76;26.33;98889.13;5132889;27;20422;-66
2021/12/24 05:53:12;;;;;;;5.47;3.50;;;;;;;20.76;26.30;98883.56;5133012;27;20047;-66
2021/12/24 05:55:38;;;;;;;5.68;3.70;;;;;;;20.77;26.27;98881.56;5132967;27;20490;-57
2021/12/24 05:58:07;;;;;;;5.60;3.67;;;;;;;20.78;26.29;98892.28;5132858;27;20067;-57
2021/12/24 06:00:38;;;;;;;5.55;3.90;;;;;;;20.78;26.43;98892.28;5132773;27;20086;-66
2021/12/24 06:03:07;;;;;;;5.80;4.10;;;;;;;20.80;26.37;98891.94;5132730;27;20028;-66
2021/12/24 06:05:37;;;;;;;7.07;3.75;;;;;;;20.81;26.17;98896.31;5132869;27;20043;-66
2021/12/24 06:08:03;;;;;;;5.25;3.40;;;;;;;20.81;26.28;98885.97;5132509;27;20460;-66
2021/12/24 06:10:29;;;;;;;4.97;3.75;;;;;;;20.81;26.45;98896.31;5132526;27;20039;-66
2021/12/24 06:12:55;;;;;;;5.13;3.65;;;;;;;20.82;26.44;98889.56;5132514;27;20047;-66
2021/12/24 06:15:24;;;;;;;5.70;3.88;;;;;;;20.81;26.26;98894.31;5132551;27;20062;-66
2021/12/24 06:17:52;;;;;;;5.97;3.80;;;;;;;20.83;26.28;98891.94;5132548;27;20093;-66
2021/12/24 06:20:19;;;;;;;4.40;3.05;;;;;;;20.85;26.38;98889.56;5132534;27;20122;-66
2021/12/24 06:22:44;;;;;;;5.18;3.58;;;;;;;20.84;26.33;98887.19;5132687;27;20134;-66
2021/12/24 06:25:10;;;;;;;5.75;3.88;;;;;;;20.85;26.40;98875.66;5132219;27;20122;-66
2021/12/24 06:27:36;;;;;;;4.95;3.42;;;;;;;20.87;26.41;98895.56;5132246;27;20039;-66
2021/12/24 06:30:04;;;;;;;4.78;3.30;;;;;;;20.88;26.36;98893.56;5132447;27;20035;-66
2021/12/24 06:32:30;;;;;;;4.85;3.45;;;;;;;20.87;26.49;98901.13;5132381;27;20051;-65
2021/12/24 06:34:55;;;;;;;5.18;3.70;;;;;;;20.89;26.41;98904.28;5132361;27;20051;-66
2021/12/24 06:37:21;;;;;;;5.30;3.70;;;;;;;20.90;26.43;98905.09;5132359;27;20035;-66
2021/12/24 06:39:47;;;;;;;4.88;3.63;;;;;;;20.89;26.30;98907.06;5132266;27;20470;-66
2021/12/24 06:42:13;;;;;;;5.15;3.50;;;;;;;20.87;26.39;98903.88;5132235;27;20492;-66
2021/12/24 06:44:38;;;;;;;4.63;3.25;;;;;;;20.89;26.48;98909.84;5131888;27;20050;-66
2021/12/24 06:47:04;;;;;;;5.57;3.63;;;;;;;20.88;26.65;98905.47;5132088;27;20044;-66
2021/12/24 06:49:33;;;;;;;6.10;3.58;;;;;;;20.87;26.46;98898.34;5131955;28;20384;-65
2021/12/24 06:51:58;;;;;;;4.85;3.40;;;;;;;20.89;26.42;98907.06;5130589;28;20398;-66
2021/12/24 06:54:24;;;;;;;5.57;3.42;;;;;;;20.91;26.63;98922.56;5132151;27;20503;-64
2021/12/24 06:56:50;;;;;;;13.55;3.40;;;;;;;20.91;26.74;98912.25;5131943;27;20053;-66
2021/12/24 06:59:15;;;;;;;17.15;3.60;;;;;;;20.92;26.58;98908.28;5131945;27;20456;-66
2021/12/24 07:01:41;;;;;;;20.13;3.83;;;;;;;20.89;26.56;98901.50;5131755;27;20039;-65
2021/12/24 07:04:07;;;;;;;11.02;3.55;;;;;;;20.92;26.63;98893.56;5132091;27;20064;-66
2021/12/24 07:06:33;;;;;;;18.83;3.30;;;;;;;20.92;26.65;98904.69;5131926;27;20036;-66
2021/12/24 07:08:58;;;;;;;13.88;3.40;;;;;;;20.90;26.82;98891.19;5131578;27;20055;-66
2021/12/24 07:11:24;;;;;;;14.80;3.50;;;;;;;20.89;26.81;98890.41;5131455;27;20082;-66
2021/12/24 07:13:51;;;;;;;11.57;3.63;;;;;;;20.91;26.81;98898.34;5131739;27;20078;-66
2021/12/24 07:16:16;;;;;;;10.73;2.90;;;;;;;20.90;26.86;98893.97;5131643;27;20035;-66
2021/12/24 07:18:41;;;;;;;7.97;3.08;;;;;;;20.92;26.59;98896.34;5131492;27;20035;-65
2021/12/24 07:21:07;;;;;;;8.20;3.22;;;;;;;20.90;26.69;98885.63;5131411;28;20079;-66
2021/12/24 07:23:34;;;;;;;7.50;3.58;;;;;;;20.90;26.68;98891.19;5131481;27;20043;-66
2021/12/24 07:25:59;;;;;;;6.45;2.97;;;;;;;20.88;26.75;98877.69;5131415;27;20420;-66
2021/12/24 07:28:25;;;;;;;4.57;2.65;;;;;;;20.90;26.66;98885.63;5131333;28;20130;-66
2021/12/24 07:30:50;;;;;;;5.00;2.90;;;;;;;20.89;26.50;98879.28;5131324;27;20039;-67
2021/12/24 07:33:16;;;;;;;4.80;2.80;;;;;;;20.89;26.60;98884.84;5131348;27;20408;-66
2021/12/24 07:35:43;;;;;;;4.63;2.92;;;;;;;20.89;26.79;98873.72;5131373;27;20431;-66
2021/12/24 07:38:09;;;;;;;4.65;2.80;;;;;;;20.89;26.83;98876.50;5130649;27;20039;-66
2021/12/24 07:40:36;;;;;;;4.50;2.97;;;;;;;20.88;26.78;98888.81;5131230;27;20418;-66
2021/12/24 07:43:02;;;;;;;5.07;2.80;;;;;;;20.89;26.81;98895.94;5131042;27;20055;-64
2021/12/24 07:45:28;;;;;;;4.43;2.92;;;;;;;20.89;26.98;98892.38;5131180;27;20039;-65
2021/12/24 07:48:10;;;;;;;5.25;3.22;;;;;;;20.88;26.64;98894.38;5131138;27;20061;-66
2021/12/24 07:53:07;;;;;;;5.80;3.22;;;;;;;20.88;26.73;98886.03;5131017;27;20134;-66
2021/12/24 07:55:33;;;;;;;5.07;3.00;;;;;;;20.88;26.60;98894.38;5130897;27;20043;-66
2021/12/24 07:57:59;;;;;;;5.05;3.47;;;;;;;20.86;26.78;98887.59;5131158;27;20130;-66
2021/12/24 08:00:26;;;;;;;5.63;3.08;;;;;;;20.85;26.70;98878.44;5131112;27;20131;-66
2021/12/24 08:02:54;;;;;;;4.38;2.88;;;;;;;20.86;26.85;98868.94;5131017;27;20042;-66
2021/12/24 08:05:23;;;;;;;5.03;3.10;;;;;;;20.85;26.58;98872.88;5127339;27;20132;-64
2021/12/24 08:07:50;;;;;;;5.30;3.00;;;;;;;20.84;26.93;98882.41;5127351;27;20055;-66
2021/12/24 08:10:16;;;;;;;5.43;3.33;;;;;;;20.84;26.92;98881.63;5129719;28;20047;-66
2021/12/24 08:12:41;;;;;;;4.57;3.03;;;;;;;20.83;26.78;98897.50;5130801;27;20091;-66
2021/12/24 08:15:07;;;;;;;3.90;2.53;;;;;;;20.82;26.67;98884.00;5130600;28;20039;-66
2021/12/24 08:17:33;;;;;;;4.70;3.05;;;;;;;20.79;26.82;98888.34;5130588;27;20122;-66
2021/12/24 08:19:59;;;;;;;4.60;3.20;;;;;;;20.80;26.86;98884.38;5130596;27;20404;-66
2021/12/24 08:22:25;;;;;;;4.45;3.13;;;;;;;20.79;26.72;98888.34;5130550;27;20453;-66
2021/12/24 08:24:50;;;;;;;4.22;3.03;;;;;;;20.78;26.82;98883.97;5130531;27;20043;-66
2021/12/24 08:27:16;;;;;;;4.90;3.05;;;;;;;20.77;26.82;98881.56;5130603;27;20392;-66
2021/12/24 08:29:42;;;;;;;4.75;3.63;;;;;;;20.77;26.78;98887.94;5130580;27;20047;-66
2021/12/24 08:32:08;;;;;;;4.85;3.08;;;;;;;20.74;26.95;98890.69;5130490;27;20038;-66
2021/12/24 08:34:34;;;;;;;4.47;3.10;;;;;;;20.75;26.95;98903.41;5130628;27;20118;-66
2021/12/24 08:37:00;;;;;;;5.32;3.45;;;;;;;20.74;26.91;98905.38;5130482;27;20134;-66
2021/12/24 08:39:25;;;;;;;4.70;3.38;;;;;;;20.76;26.95;98907.78;5130182;27;20062;-65
2021/12/24 08:41:54;;;;;;;5.25;3.00;;;;;;;20.75;26.76;98920.88;5130310;27;20085;-57
2021/12/24 08:44:23;;;;;;;5.28;3.40;;;;;;;20.73;26.96;98919.69;5130169;27;20449;-57
2021/12/24 08:46:49;;;;;;;4.97;3.17;;;;;;;20.75;26.83;98920.88;5130039;27;20403;-57
2021/12/24 08:49:15;;;;;;;4.93;3.22;;;;;;;20.75;26.82;98917.31;5132986;27;20553;-66
2021/12/24 08:51:40;;;;;;;5.47;3.13;;;;;;;20.75;26.98;98918.09;5134066;27;20043;-57
2021/12/24 08:54:05;;;;;;;4.65;3.30;;;;;;;20.73;26.81;98906.56;5133790;27;20191;-57
2021/12/24 08:56:31;;;;;;;4.65;3.17;;;;;;;20.72;27.00;98902.22;5133860;28;20115;-57
2021/12/24 08:58:57;;;;;;;4.60;3.00;;;;;;;20.71;27.00;98895.03;5133471;28;20073;-57
2021/12/24 09:01:22;;;;;;;4.13;2.97;;;;;;;20.74;27.04;98901.81;5133982;28;20232;-58
2021/12/24 09:03:48;;;;;;;4.88;3.05;;;;;;;20.71;26.96;98889.47;5133597;27;20058;-66
2021/12/24 09:06:13;;;;;;;5.70;3.25;;;;;;;20.72;27.25;98888.31;5132860;27;20047;-66
2021/12/24 09:08:42;;;;;;;5.10;3.00;;;;;;;20.73;27.28;98880.78;5133754;28;20055;-57
2021/12/24 09:11:08;;;;;;;6.47;3.38;;;;;;;20.73;27.23;98881.56;5133802;27;20043;-57
2021/12/24 09:13:33;;;;;;;4.43;3.00;;;;;;;20.73;27.25;98880.78;5133690;27;20051;-57
2021/12/24 09:16:01;;;;;;;6.15;3.63;;;;;;;20.72;27.31;98885.53;5133309;28;20049;-57
2021/12/24 09:18:27;;;;;;;4.57;3.22;;;;;;;20.73;27.46;98883.53;5133339;28;20058;-57
2021/12/24 09:20:54;;;;;;;4.50;2.90;;;;;;;20.74;27.26;98876.81;5133202;28;20051;-57
2021/12/24 09:23:20;;;;;;;4.85;3.50;;;;;;;20.72;27.29;98868.06;5133529;28;20578;-57
2021/12/24 09:25:46;;;;;;;4.68;3.33;;;;;;;20.74;27.42;98869.25;5133499;28;20039;-57
2021/12/24 09:28:11;;;;;;;4.78;3.40;;;;;;;20.71;27.52;98867.25;5133497;27;20035;-66
2021/12/24 09:30:37;;;;;;;4.97;3.20;;;;;;;20.72;27.35;98862.50;5133581;28;20035;-66
2021/12/24 09:33:04;;;;;;;4.88;3.00;;;;;;;20.72;27.53;98851.38;5133432;27;20077;-66
2021/12/24 09:35:29;;;;;;;4.82;3.38;;;;;;;20.71;27.61;98847.78;5133183;27;20047;-66
2021/12/24 09:37:56;;;;;;;5.05;3.45;;;;;;;20.72;27.66;98857.75;5133066;27;20084;-66
2021/12/24 09:40:22;;;;;;;5.07;3.30;;;;;;;20.72;27.67;98852.19;5133223;27;20051;-66
2021/12/24 09:42:48;;;;;;;5.07;3.20;;;;;;;20.72;27.68;98843.06;5133195;27;20129;-66
2021/12/24 09:45:15;;;;;;;5.20;3.58;;;;;;;20.73;27.51;98839.09;5133105;27;20384;-66
2021/12/24 09:47:41;;;;;;;4.63;3.40;;;;;;;20.73;27.86;98839.88;5129567;28;20054;-66
2021/12/24 09:50:09;;;;;;;4.70;3.30;;;;;;;20.74;27.73;98835.91;5132960;27;20035;-66
2021/12/24 09:52:38;;;;;;;4.63;3.30;;;;;;;20.73;27.84;98836.31;5133043;27;20521;-66
2021/12/24 09:55:25;;;;;;;4.72;3.30;;;;;;;20.70;27.83;98832.31;5132946;27;20646;-57
2021/12/24 09:57:52;;;;;;;4.97;3.13;;;;;;;20.71;27.77;98831.09;5132719;27;20415;-57
2021/12/24 10:00:21;;;;;;;5.07;3.40;;;;;;;20.71;28.01;98831.09;5132006;27;20522;-57
2021/12/24 10:02:51;;;;;;;5.13;3.20;;;;;;;20.70;27.89;98831.50;5132804;27;20074;-57
2021/12/24 10:05:22;;;;;;;5.88;3.83;;;;;;;20.70;28.10;98826.75;5132819;27;20139;-57
2021/12/24 10:07:48;;;;;;;5.18;3.42;;;;;;;20.71;28.00;98831.09;5132912;27;20058;-57
2021/12/24 10:10:15;;;;;;;5.97;3.85;;;;;;;20.68;28.15;98826.34;5132497;27;20039;-58
2021/12/24 10:12:40;;;;;;;5.25;3.67;;;;;;;20.72;28.13;98832.72;5128058;27;20042;-57
2021/12/24 10:15:06;;;;;;;7.00;4.00;;;;;;;20.71;28.31;98830.31;5131462;27;20043;-57
2021/12/24 10:17:34;;;;;;;5.38;3.50;;;;;;;20.73;28.12;98831.53;5130911;27;20074;-57
2021/12/24 10:20:13;;;;;;;6.30;3.67;;;;;;;20.73;28.19;98836.31;5132292;27;20572;-57
2021/12/24 10:22:57;;;;;;;5.70;3.80;;;;;;;20.74;28.09;98835.13;5131727;28;20047;-58
2021/12/24 10:25:29;;;;;;;5.93;3.70;;;;;;;20.76;28.21;98838.28;5132464;27;20069;-58
2021/12/24 10:27:55;;;;;;;5.57;3.40;;;;;;;20.76;28.24;98830.75;5132654;27;20047;-58
2021/12/24 10:30:26;;;;;;;5.55;3.63;;;;;;;20.78;28.33;98828.38;5131816;27;20055;-58
2021/12/24 10:32:55;;;;;;;5.50;3.70;;;;;;;20.79;28.46;98818.88;5131824;27;20047;-58
2021/12/24 10:35:25;;;;;;;4.82;3.20;;;;;;;20.68;28.70;98820.00;5131953;27;20088;-57
2021/12/24 10:38:09;;;;;;;4.93;3.50;;;;;;;20.60;28.72;98821.94;5132174;27;20499;-57
2021/12/24 10:40:34;;;;;;;6.15;3.60;;;;;;;20.58;28.87;98815.97;5132128;27;20134;-57
2021/12/24 10:43:00;;;;;;;8.30;3.85;;;;;;;20.52;28.90;98804.41;5132239;27;20089;-57
2021/12/24 10:45:26;;;;;;;5.80;3.47;;;;;;;20.45;29.35;98786.91;5131487;27;20077;-57
2021/12/24 10:47:52;;;;;;;5.65;3.80;;;;;;;20.43;29.44;98794.78;5131896;27;20066;-57
2021/12/24 10:55:23;;;;;;;5.82;3.72;;;;;;;20.35;29.54;98786.41;5131932;27;20039;-57
2021/12/24 10:57:51;;;;;;;6.90;3.72;;;;;;;20.31;29.77;98777.28;5131996;27;20047;-57
2021/12/24 11:00:21;;;;;;;4.32;3.17;;;;;;;20.28;29.91;98774.44;5131725;27;20088;-57
2021/12/24 11:02:56;;;;;;;5.55;3.63;;;;;;;20.26;29.96;98774.84;5131818;27;20057;-57
2021/12/24 11:05:45;;;;;;;6.15;3.97;;;;;;;20.23;30.17;98778.41;5131590;28;20181;-57
2021/12/24 11:08:13;;;;;;;5.15;3.60;;;;;;;20.22;30.11;98778.81;5131815;27;20068;-57
2021/12/24 11:10:44;;;;;;;4.90;3.38;;;;;;;20.21;30.17;98777.97;5131387;27;20092;-57
2021/12/24 11:13:14;;;;;;;5.95;3.80;;;;;;;20.20;30.30;98776.38;5130851;27;20064;-66
2021/12/24 11:15:52;;;;;;;7.97;4.25;;;;;;;20.19;30.34;98774.78;5131716;27;20062;-67
2021/12/24 11:18:39;;;;;;;5.20;3.50;;;;;;;20.15;30.36;98765.66;5131907;28;20043;-66
2021/12/24 11:21:09;;;;;;;5.85;3.72;;;;;;;20.18;30.44;98762.09;5131720;27;20031;-66
2021/12/24 11:23:36;;;;;;;6.38;4.22;;;;;;;20.19;30.40;98752.59;5131669;27;20494;-67
2021/12/24 11:26:09;;;;;;;5.53;3.78;;;;;;;20.18;30.45;98758.53;5131594;27;20059;-57
2021/12/24 11:28:35;;;;;;;5.75;3.70;;;;;;;20.14;30.38;98747.38;5131625;27;20082;-57
2021/12/24 11:31:04;;;;;;;6.47;4.00;;;;;;;20.13;30.26;98745.00;5131392;27;20079;-57
2021/12/24 11:33:33;;;;;;;6.13;3.65;;;;;;;20.10;30.33;98732.69;5131570;27;20047;-57
2021/12/24 11:36:00;;;;;;;6.15;4.00;;;;;;;20.12;30.29;98735.88;5131302;27;20035;-57
2021/12/24 11:38:32;;;;;;;5.32;3.72;;;;;;;20.09;30.36;98741.41;5131375;27;20070;-57
2021/12/24 11:40:59;;;;;;;6.10;3.92;;;;;;;20.11;30.38;98745.41;5131085;27;20069;-57
2021/12/24 11:43:29;;;;;;;5.32;3.83;;;;;;;20.09;30.36;98735.88;5131167;28;20054;-57
2021/12/24 11:45:59;;;;;;;5.38;3.70;;;;;;;20.08;30.26;98725.94;5131211;27;20043;-57
2021/12/24 11:48:27;;;;;;;5.95;4.20;;;;;;;20.06;30.27;98723.53;5131033;27;20047;-66
2021/12/24 11:50:53;;;;;;;6.28;4.25;;;;;;;20.05;30.44;98728.28;5131005;27;20039;-66
2021/12/24 11:53:19;;;;;;;5.00;3.55;;;;;;;20.05;30.25;98722.75;5131339;27;20039;-66
2021/12/24 11:55:48;;;;;;;5.18;3.50;;;;;;;20.00;30.42;98716.75;5131255;27;20043;-57
2021/12/24 11:58:23;;;;;;;4.97;3.60;;;;;;;19.96;30.40;98707.63;5131069;27;20047;-57
2021/12/24 12:00:52;;;;;;;5.68;3.70;;;;;;;19.98;30.36;98703.25;5131021;27;20472;-57
2021/12/24 12:03:46;;;;;;;5.43;3.70;;;;;;;20.00;30.37;98714.78;5129792;28;20447;-57
2021/12/24 12:06:33;;;;;;;4.93;3.60;;;;;;;20.00;30.44;98712.03;5131108;27;20551;-57
2021/12/24 12:09:02;;;;;;;4.78;3.42;;;;;;;19.99;30.37;98706.84;5130902;27;20039;-57
2021/12/24 12:11:30;;;;;;;5.35;3.70;;;;;;;20.01;30.35;98708.06;5130541;27;20039;-66
2021/12/24 12:13:59;;;;;;;5.28;3.40;;;;;;;19.98;30.33;98700.47;5130800;27;20503;-66
2021/12/24 12:16:43;;;;;;;5.10;3.65;;;;;;;19.99;30.42;98701.28;5131029;27;20122;-66
2021/12/24 12:19:23;;;;;;;5.05;3.70;;;;;;;19.98;30.47;98705.25;5130844;27;20515;-66
2021/12/24 12:22:19;;;;;;;5.45;3.90;;;;;;;19.95;30.61;98695.72;5130638;27;20058;-66
2021/12/24 12:24:58;;;;;;;5.20;3.75;;;;;;;19.95;30.57;98694.94;5130615;27;20072;-67
2021/12/24 12:27:51;;;;;;;5.22;3.63;;;;;;;19.90;30.80;98687.75;5130779;27;20039;-64
2021/12/24 12:30:16;;;;;;;5.57;3.63;;;;;;;19.89;30.79;98683.38;5123920;28;20043;-66
2021/12/24 12:32:42;;;;;;;5.93;4.03;;;;;;;19.88;30.90;98684.56;5130282;27;20039;-66
2021/12/24 12:35:09;;;;;;;6.30;4.30;;;;;;;19.89;30.89;98697.25;5130568;27;20130;-66
2021/12/24 12:37:52;;;;;;;5.28;3.58;;;;;;;19.87;30.88;98694.09;5130593;27;20380;-66
2021/12/24 12:40:17;;;;;;;4.88;3.63;;;;;;;19.88;31.06;98692.09;5130254;27;20126;-65
2021/12/24 12:42:52;;;;;;;6.13;3.75;;;;;;;19.87;31.08;98690.50;5130393;27;20139;-66
2021/12/24 12:45:42;;;;;;;5.47;3.75;;;;;;;19.86;31.14;98695.28;5130413;27;20531;-58
2021/12/24 12:48:16;;;;;;;5.40;3.67;;;;;;;19.87;31.07;98694.09;5119364;27;20081;-57
2021/12/24 12:50:51;;;;;;;5.70;3.72;;;;;;;19.84;31.26;98680.16;5130176;27;20143;-57
2021/12/24 12:53:30;;;;;;;6.55;3.90;;;;;;;19.86;31.28;98678.63;5130280;27;20058;-57
2021/12/24 12:56:29;;;;;;;6.13;4.18;;;;;;;19.86;31.39;98680.56;5130211;27;20043;-57
2021/12/24 12:59:01;;;;;;;5.35;3.70;;;;;;;19.83;31.42;98679.38;5130394;27;20051;-57
2021/12/24 13:01:27;;;;;;;6.60;4.38;;;;;;;19.85;31.50;98674.22;5130190;27;20048;-57
2021/12/24 13:03:56;;;;;;;5.63;3.78;;;;;;;19.82;31.54;98669.47;5129909;27;20043;-57
2021/12/24 13:06:41;;;;;;;5.45;3.65;;;;;;;19.84;31.58;98675.41;5130054;27;20092;-57
2021/12/24 13:09:33;;;;;;;4.97;3.45;;;;;;;19.83;31.55;98673.81;5130074;27;20039;-57
2021/12/24 13:12:01;;;;;;;4.22;3.30;;;;;;;19.84;31.63;98664.31;5129971;27;20055;-57
2021/12/24 13:14:29;;;;;;;5.03;3.40;;;;;;;19.83;31.60;98662.72;5129957;27;20506;-57
2021/12/24 13:25:04;;;;;;;5.03;3.35;;;;;;;19.80;31.72;98657.97;5129883;28;20146;-66
2021/12/24 13:27:34;;;;;;;5.15;3.38;;;;;;;19.81;31.77;98654.00;5129934;27;20047;-57
2021/12/24 13:30:14;;;;;;;7.53;3.42;;;;;;;19.81;31.90;98655.97;5129801;27;20521;-66